Time;durP1;ratioP1;P1;durP2;ratioP2;P2;SDS_P1;SDS_P2;PMS_P1;PMS_P2;Temp;Humidity;BMP_temperature;BMP_pressure;BME280_temperature;BME280_humidity;BME280_pressure;Samples;Min_cycle;Max_cycle;Signal;HPM_P1;HPM_P2
2022/10/12 00:00:49;;;;;;;3.31;2.62;;;;;;;9.84;77.95;101241.23;457931;116;922935;-78
2022/10/12 00:01:52;;;;;;;3.36;3.12;;;;;;;9.85;78.02;101232.03;457890;116;922547;-76
2022/10/12 00:02:55;;;;;;;5.56;3.26;;;;;;;9.86;78.02;101239.17;457954;116;923014;-77
2022/10/12 00:03:58;;;;;;;3.25;2.98;;;;;;;9.86;78.01;101244.62;457934;116;922959;-76
2022/10/12 00:05:01;;;;;;;2.98;2.76;;;;;;;9.86;78.15;101245.47;458002;116;922693;-78
2022/10/12 00:06:16;;;;;;;4.02;2.78;;;;;;;9.86;78.15;101245.47;457958;116;922696;-79
2022/10/12 00:07:19;;;;;;;3.79;2.93;;;;;;;9.86;78.02;101250.91;457810;116;922585;-78
2022/10/12 00:08:22;;;;;;;3.22;2.96;;;;;;;9.86;78.00;101250.91;457914;116;922548;-78
2022/10/12 00:09:25;;;;;;;2.89;2.69;;;;;;;9.84;78.02;101247.53;457968;116;922609;-76
2022/10/12 00:10:28;;;;;;;3.21;2.95;;;;;;;9.86;78.11;101252.79;457927;116;922634;-78
2022/10/12 00:11:31;;;;;;;3.92;3.39;;;;;;;9.86;78.06;101242.74;445094;118;923189;-77
2022/10/12 00:12:34;;;;;;;3.15;2.82;;;;;;;9.86;78.10;101248.19;445468;116;923106;-78
2022/10/12 00:13:37;;;;;;;3.64;3.12;;;;;;;9.87;78.05;101238.11;457975;116;922610;-78
2022/10/12 00:14:40;;;;;;;3.26;2.95;;;;;;;9.87;78.00;101241.68;457930;116;923306;-78
2022/10/12 00:15:43;;;;;;;3.04;2.83;;;;;;;9.88;78.00;101242.53;457940;116;922917;-76
2022/10/12 00:16:46;;;;;;;3.71;2.92;;;;;;;9.88;78.05;101247.97;446634;118;922850;-76
2022/10/12 00:17:49;;;;;;;3.76;2.81;;;;;;;9.87;78.07;101238.95;439150;119;922700;-77
2022/10/12 00:18:54;;;;;;;4.05;2.89;;;;;;;9.89;78.08;101241.49;447918;118;922551;-77
2022/10/12 00:19:57;;;;;;;3.37;3.07;;;;;;;9.88;78.10;101247.97;444042;119;922766;-77
2022/10/12 00:21:03;;;;;;;3.31;2.95;;;;;;;9.89;78.09;101249.66;444185;119;922877;-77
2022/10/12 00:22:06;;;;;;;4.96;2.77;;;;;;;9.89;78.09;101249.66;444018;119;923076;-79
2022/10/12 00:23:09;;;;;;;2.89;2.69;;;;;;;9.90;78.26;101254.08;444184;119;922920;-77
2022/10/12 00:24:12;;;;;;;3.15;2.77;;;;;;;9.92;78.23;101250.11;444194;119;922888;-77
2022/10/12 00:25:15;;;;;;;3.71;2.84;;;;;;;9.91;78.31;101244.88;444197;119;922505;-77
2022/10/12 00:26:20;;;;;;;3.27;2.61;;;;;;;9.93;78.31;101253.67;444139;119;922975;-78
2022/10/12 00:27:23;;;;;;;2.83;2.63;;;;;;;9.93;78.19;101251.80;444039;119;923062;-77
2022/10/12 00:28:26;;;;;;;2.87;2.67;;;;;;;9.93;78.14;101251.80;444224;119;923010;-77
2022/10/12 00:29:29;;;;;;;3.24;2.46;;;;;;;9.94;78.23;101261.66;444217;119;923039;-76
2022/10/12 00:30:33;;;;;;;3.41;3.21;;;;;;;9.93;78.13;101254.52;447592;118;923130;-78
2022/10/12 00:31:36;;;;;;;2.68;2.48;;;;;;;9.93;78.09;101254.52;441499;118;922716;-78
2022/10/12 00:32:39;;;;;;;2.66;2.46;;;;;;;9.93;78.16;101262.70;440136;120;922517;-77
2022/10/12 00:33:42;;;;;;;3.59;2.83;;;;;;;9.93;78.11;101261.84;440092;118;922543;-76
2022/10/12 00:34:45;;;;;;;3.29;2.78;;;;;;;9.91;78.09;101259.34;440040;120;923107;-78
2022/10/12 00:35:48;;;;;;;3.17;2.73;;;;;;;9.92;78.14;101263.73;440125;120;922500;-78
2022/10/12 00:36:51;;;;;;;4.14;2.76;;;;;;;9.90;78.06;101260.37;440151;120;922843;-77
2022/10/12 00:37:54;;;;;;;3.01;2.83;;;;;;;9.90;78.05;101265.83;440119;120;922590;-77
2022/10/12 00:38:58;;;;;;;2.84;2.64;;;;;;;9.90;78.05;101264.98;440063;120;922587;-77
2022/10/12 00:40:01;;;;;;;5.47;2.51;;;;;;;9.89;78.04;101266.86;440026;120;930432;-77
2022/10/12 00:41:04;;;;;;;2.59;2.39;;;;;;;9.89;78.12;101257.84;440070;120;930638;-77
2022/10/12 00:42:11;;;;;;;3.06;2.61;;;;;;;9.88;78.08;101267.88;440193;120;922514;-77
2022/10/12 00:43:29;;;;;;;2.74;2.54;;;;;;;9.89;78.17;101264.13;439603;120;922928;-76
2022/10/12 00:44:44;;;;;;;4.79;3.01;;;;;;;9.88;78.14;101256.14;439909;120;923011;-76
2022/10/12 00:45:47;;;;;;;3.14;2.64;;;;;;;9.90;78.22;101262.25;439968;120;923005;-76
2022/10/12 00:46:52;;;;;;;2.81;2.61;;;;;;;9.90;78.16;101259.53;440193;120;922331;-78
2022/10/12 00:47:58;;;;;;;3.48;2.70;;;;;;;9.92;78.17;101266.45;439951;120;923114;-78
2022/10/12 00:49:17;;;;;;;2.89;2.54;;;;;;;9.94;78.13;101271.72;440054;120;922687;-78
2022/10/12 00:50:32;;;;;;;6.33;2.29;;;;;;;9.94;78.04;101260.82;439998;120;922627;-77
2022/10/12 00:51:37;;;;;;;2.69;2.49;;;;;;;9.95;78.02;101268.81;442537;118;922922;-78
2022/10/12 00:52:43;;;;;;;2.82;2.39;;;;;;;9.95;77.96;101271.53;447570;118;922520;-77
2022/10/12 00:53:50;;;;;;;3.10;2.54;;;;;;;9.95;77.87;101270.69;447501;118;923103;-76
2022/10/12 00:54:54;;;;;;;3.90;2.35;;;;;;;9.95;77.67;101267.96;447441;118;922535;-78
2022/10/12 00:56:03;;;;;;;2.54;2.31;;;;;;;9.93;77.62;101270.87;439425;120;922551;-77
2022/10/12 00:57:08;;;;;;;4.59;2.80;;;;;;;9.93;77.57;101270.87;440240;119;923106;-78
2022/10/12 00:58:11;;;;;;;3.59;2.28;;;;;;;9.94;77.54;101274.44;444528;119;922574;-80
2022/10/12 00:59:20;;;;;;;5.50;2.25;;;;;;;9.94;77.66;101277.16;444748;119;923490;-78
2022/10/12 01:00:24;;;;;;;2.43;2.30;;;;;;;9.95;77.54;101270.69;444607;119;922634;-76
2022/10/12 01:01:28;;;;;;;3.34;2.12;;;;;;;9.95;77.53;101270.69;444737;119;922476;-77
2022/10/12 01:02:33;;;;;;;2.76;2.56;;;;;;;9.94;77.37;101267.11;444635;119;930483;-77
2022/10/12 01:03:36;;;;;;;3.43;2.61;;;;;;;9.94;77.29;101268.99;444558;119;922509;-78
2022/10/12 01:04:40;;;;;;;3.52;2.56;;;;;;;9.93;77.09;101270.02;444804;119;923062;-77
2022/10/12 01:05:43;;;;;;;3.81;2.47;;;;;;;9.91;77.00;101272.97;444648;119;922465;-77
2022/10/12 01:06:46;;;;;;;3.50;2.61;;;;;;;9.91;77.03;101272.12;444728;119;930592;-77
2022/10/12 01:07:50;;;;;;;2.33;2.13;;;;;;;9.90;77.03;101278.59;444816;119;922551;-77
2022/10/12 01:08:54;;;;;;;2.81;2.62;;;;;;;9.88;77.13;101273.33;444804;119;922856;-78
2022/10/12 01:09:57;;;;;;;2.68;2.44;;;;;;;9.88;77.04;101272.48;444678;119;923037;-77
2022/10/12 01:11:00;;;;;;;4.84;2.67;;;;;;;9.88;77.08;101272.48;444774;119;922754;-77
2022/10/12 01:12:04;;;;;;;4.46;2.49;;;;;;;9.87;76.98;101276.24;444771;119;922583;-76
2022/10/12 01:13:07;;;;;;;2.93;2.66;;;;;;;9.87;77.08;101277.09;444613;119;922650;-77
2022/10/12 01:14:10;;;;;;;2.54;2.34;;;;;;;9.87;77.06;101274.36;444711;119;930488;-77
2022/10/12 01:15:13;;;;;;;2.34;2.14;;;;;;;9.87;77.05;101271.64;444773;119;922548;-77
2022/10/12 01:16:23;;;;;;;2.34;2.14;;;;;;;9.88;77.07;101277.94;439595;119;922511;-79
2022/10/12 01:17:29;;;;;;;2.93;2.67;;;;;;;9.88;77.10;101277.94;437143;121;922515;-77
2022/10/12 01:18:51;;;;;;;2.87;2.09;;;;;;;9.89;77.01;101277.75;437063;118;922600;-77
2022/10/12 01:20:20;;;;;;;2.90;2.43;;;;;;;9.89;76.97;101276.91;444298;119;923211;-77
2022/10/12 01:21:24;;;;;;;3.93;2.66;;;;;;;9.87;76.96;101276.24;444344;119;922923;-78
2022/10/12 01:22:30;;;;;;;2.71;2.39;;;;;;;9.85;76.96;101283.78;444429;119;922677;-77
2022/10/12 01:23:48;;;;;;;2.51;2.29;;;;;;;9.82;76.98;101276.83;444309;119;922728;-78
2022/10/12 01:25:03;;;;;;;3.02;2.37;;;;;;;9.83;77.10;101274.95;444366;119;922606;-77
2022/10/12 01:26:28;;;;;;;4.34;2.53;;;;;;;9.81;77.12;101277.89;444091;119;923069;-77
2022/10/12 01:27:49;;;;;;;3.63;2.29;;;;;;;9.80;77.04;101278.92;442472;119;922786;-77
2022/10/12 01:29:18;;;;;;;2.49;2.29;;;;;;;9.79;76.97;101266.33;450828;117;922537;-77
2022/10/12 01:30:28;;;;;;;3.29;2.94;;;;;;;9.76;76.97;101274.88;452805;117;922448;-77
2022/10/12 01:31:37;;;;;;;2.65;2.21;;;;;;;9.75;77.04;101277.81;451964;116;922507;-78
2022/10/12 01:33:04;;;;;;;2.97;2.27;;;;;;;9.73;77.10;101279.88;450610;117;922808;-77
2022/10/12 01:34:32;;;;;;;2.89;2.69;;;;;;;9.72;77.10;101283.63;454781;115;922782;-77
2022/10/12 01:35:56;;;;;;;2.46;2.25;;;;;;;9.69;77.08;101284.87;458395;115;922533;-75
2022/10/12 01:37:06;;;;;;;2.62;2.43;;;;;;;9.70;77.06;101293.88;458436;115;922580;-76
2022/10/12 01:38:24;;;;;;;2.48;2.22;;;;;;;9.68;77.14;101293.22;458111;115;922552;-76
2022/10/12 01:39:40;;;;;;;3.43;2.63;;;;;;;9.66;77.07;101295.28;458259;115;922759;-77
2022/10/12 01:40:58;;;;;;;2.74;2.34;;;;;;;9.65;77.15;101296.34;458365;115;922985;-77
2022/10/12 01:42:05;;;;;;;2.73;2.42;;;;;;;9.63;77.08;101297.38;458261;115;922620;-78
2022/10/12 01:43:08;;;;;;;2.23;2.13;;;;;;;9.62;77.14;101289.38;458447;115;922473;-77
2022/10/12 01:44:11;;;;;;;2.51;2.27;;;;;;;9.59;77.13;101293.31;458648;115;922699;-77
2022/10/12 01:45:17;;;;;;;4.39;2.72;;;;;;;9.60;77.08;101292.28;458646;115;922622;-76
2022/10/12 01:46:24;;;;;;;2.64;2.44;;;;;;;9.62;77.13;101295.67;458442;115;922487;-77
2022/10/12 01:47:27;;;;;;;2.98;2.47;;;;;;;9.64;77.11;101287.33;458454;115;922510;-76
2022/10/12 01:48:30;;;;;;;3.51;3.03;;;;;;;9.65;77.04;101285.45;458584;115;922460;-76
2022/10/12 01:49:34;;;;;;;2.49;2.33;;;;;;;9.64;77.06;101295.49;458566;115;923071;-76
2022/10/12 01:50:53;;;;;;;3.62;2.85;;;;;;;9.65;77.07;101293.62;458504;115;922836;-77
2022/10/12 01:52:24;;;;;;;3.73;2.78;;;;;;;9.65;76.94;101293.62;452818;115;922806;-76
2022/10/12 01:53:36;;;;;;;3.11;2.73;;;;;;;9.65;76.80;101299.06;450694;117;922529;-76
2022/10/12 01:55:04;;;;;;;3.41;2.86;;;;;;;9.62;76.74;101298.40;450192;117;922451;-78
2022/10/12 01:56:26;;;;;;;2.89;2.57;;;;;;;9.60;76.63;101300.45;449837;117;922665;-77
2022/10/12 01:57:53;;;;;;;2.81;2.59;;;;;;;9.60;76.70;101302.33;450237;117;922619;-77
2022/10/12 01:59:15;;;;;;;4.18;2.62;;;;;;;9.58;76.65;101304.42;450554;117;922561;-76
2022/10/12 02:00:18;;;;;;;2.97;2.77;;;;;;;9.56;76.52;101301.03;450217;117;922659;-77
2022/10/12 02:01:27;;;;;;;4.68;2.92;;;;;;;9.53;76.51;101299.55;450708;115;922799;-76
2022/10/12 02:02:53;;;;;;;4.13;2.99;;;;;;;9.52;76.54;101306.03;450433;117;922857;-77
2022/10/12 02:04:09;;;;;;;3.29;3.08;;;;;;;9.51;76.58;101307.05;450596;117;922585;-76
2022/10/12 02:05:21;;;;;;;2.96;2.76;;;;;;;9.52;76.54;101307.91;450618;117;922870;-79
2022/10/12 02:06:28;;;;;;;3.05;2.82;;;;;;;9.49;76.53;101310.98;450439;116;923019;-76
2022/10/12 02:07:52;;;;;;;3.48;2.95;;;;;;;9.50;76.45;101313.53;450305;117;922587;-77
2022/10/12 02:08:59;;;;;;;3.15;2.69;;;;;;;9.50;76.36;101315.41;450531;117;922498;-76
2022/10/12 02:10:06;;;;;;;2.84;2.64;;;;;;;9.48;76.22;101310.14;450450;117;922586;-75
2022/10/12 02:11:12;;;;;;;2.84;2.43;;;;;;;9.47;76.16;101313.08;450595;115;922612;-77
2022/10/12 02:12:21;;;;;;;2.87;2.66;;;;;;;9.46;76.11;101314.95;450657;117;922846;-77
2022/10/12 02:13:27;;;;;;;3.97;3.02;;;;;;;9.45;76.02;101310.53;450596;117;922802;-78
2022/10/12 02:14:34;;;;;;;3.78;3.48;;;;;;;9.44;76.10;101311.56;450564;117;922910;-78
2022/10/12 02:15:39;;;;;;;3.00;2.73;;;;;;;9.44;76.21;101311.56;450586;117;923052;-76
2022/10/12 02:16:48;;;;;;;4.31;3.32;;;;;;;9.44;76.02;101316.16;453292;117;923522;-78
2022/10/12 02:17:52;;;;;;;3.03;2.33;;;;;;;9.44;75.94;101313.44;453314;117;922490;-77
2022/10/12 02:18:58;;;;;;;3.04;2.74;;;;;;;9.43;75.90;101315.31;452786;116;922695;-78
2022/10/12 02:20:02;;;;;;;4.60;2.56;;;;;;;9.43;75.87;101315.31;462862;114;922559;-76
2022/10/12 02:21:08;;;;;;;3.14;2.62;;;;;;;9.43;75.80;101322.63;462875;114;922623;-76
2022/10/12 02:22:14;;;;;;;4.02;2.97;;;;;;;9.42;75.70;101313.65;462888;114;922647;-75
2022/10/12 02:23:18;;;;;;;3.83;2.45;;;;;;;9.42;75.62;101315.52;453564;117;922545;-76
2022/10/12 02:24:22;;;;;;;3.48;2.48;;;;;;;9.41;75.57;101316.55;462887;114;922460;-77
2022/10/12 02:25:26;;;;;;;3.36;2.42;;;;;;;9.40;75.44;101318.42;462981;114;930909;-77
2022/10/12 02:26:33;;;;;;;6.12;2.85;;;;;;;9.39;75.39;101321.33;462988;114;923156;-76
2022/10/12 02:27:39;;;;;;;3.03;2.61;;;;;;;9.38;75.39;101319.63;462898;114;922446;-76
2022/10/12 02:28:44;;;;;;;3.29;2.90;;;;;;;9.37;75.31;101316.06;462960;114;922584;-76
2022/10/12 02:29:48;;;;;;;4.44;3.23;;;;;;;9.36;75.34;101317.12;462918;114;922834;-77
2022/10/12 02:30:58;;;;;;;3.43;2.47;;;;;;;9.36;75.37;101319.00;463051;114;922640;-77
2022/10/12 02:32:24;;;;;;;2.57;2.33;;;;;;;9.35;75.43;101320.88;462813;114;930427;-77
2022/10/12 02:33:40;;;;;;;2.73;2.43;;;;;;;9.35;75.37;101315.43;462903;114;922910;-77
2022/10/12 02:34:46;;;;;;;3.69;2.75;;;;;;;9.32;75.18;101320.42;462860;114;923013;-76
2022/10/12 02:35:53;;;;;;;5.47;3.26;;;;;;;9.29;75.27;101313.46;462895;114;922497;-77
2022/10/12 02:37:03;;;;;;;3.23;2.87;;;;;;;9.28;75.36;101319.08;462744;114;922434;-78
2022/10/12 02:38:29;;;;;;;3.44;2.56;;;;;;;9.26;75.36;101313.00;462929;114;922886;-77
2022/10/12 02:39:38;;;;;;;3.14;2.86;;;;;;;9.26;75.30;101315.73;462882;114;922988;-76
2022/10/12 02:40:48;;;;;;;3.32;3.02;;;;;;;9.23;75.39;101322.38;462790;114;923031;-75
2022/10/12 02:42:05;;;;;;;3.28;2.83;;;;;;;9.33;75.26;101327.52;477000;110;946801;-76
2022/10/12 02:43:15;;;;;;;3.31;2.60;;;;;;;9.19;75.23;101329.23;465341;113;922485;-76
2022/10/12 02:44:21;;;;;;;6.15;2.63;;;;;;;9.16;75.10;101324.15;465372;113;922554;-75
2022/10/12 02:45:25;;;;;;;3.56;3.01;;;;;;;9.15;75.06;101338.81;465358;114;923047;-75
2022/10/12 02:46:31;;;;;;;2.68;2.38;;;;;;;9.12;75.11;101326.41;471015;112;922807;-76
2022/10/12 02:47:35;;;;;;;4.41;3.23;;;;;;;9.12;75.17;101325.56;471278;112;922913;-77
2022/10/12 02:48:40;;;;;;;3.51;2.79;;;;;;;9.12;75.18;101328.28;471271;112;922549;-76
2022/10/12 02:49:45;;;;;;;2.99;2.80;;;;;;;9.11;75.29;101334.75;471381;112;922403;-76
2022/10/12 02:50:51;;;;;;;3.16;2.85;;;;;;;9.10;75.18;101327.61;471331;112;922660;-76
2022/10/12 02:51:55;;;;;;;4.06;2.96;;;;;;;9.09;75.18;101324.08;471275;112;922547;-75
2022/10/12 02:52:58;;;;;;;5.31;2.81;;;;;;;9.09;75.23;101334.96;471305;112;922897;-76
2022/10/12 02:54:02;;;;;;;3.46;3.16;;;;;;;9.10;75.29;101333.05;471294;112;930402;-76
2022/10/12 02:55:06;;;;;;;3.09;2.89;;;;;;;9.10;75.31;101327.61;471387;112;923190;-76
2022/10/12 02:56:11;;;;;;;6.05;2.79;;;;;;;9.09;75.27;101331.39;471292;112;924015;-76
2022/10/12 02:57:14;;;;;;;7.76;3.14;;;;;;;9.09;75.30;101340.40;471257;112;922545;-76
2022/10/12 02:58:18;;;;;;;2.55;2.35;;;;;;;9.08;75.29;101332.42;471472;112;922475;-76
2022/10/12 02:59:22;;;;;;;3.24;2.80;;;;;;;9.08;75.28;101343.30;471329;112;922990;-76
2022/10/12 03:00:25;;;;;;;2.58;2.36;;;;;;;9.08;75.38;101335.14;471477;112;922561;-75
2022/10/12 03:01:28;;;;;;;3.08;2.69;;;;;;;9.07;75.41;101336.16;471418;112;923119;-76
2022/10/12 03:02:31;;;;;;;3.01;2.63;;;;;;;9.08;75.46;101337.86;471517;112;923030;-75
2022/10/12 03:03:34;;;;;;;3.11;2.79;;;;;;;9.08;75.54;101333.27;471499;112;922823;-76
2022/10/12 03:04:37;;;;;;;2.81;2.41;;;;;;;9.08;75.55;101330.55;471518;112;922508;-75
2022/10/12 03:05:40;;;;;;;3.84;2.74;;;;;;;9.09;75.37;101331.39;471490;112;922495;-75
2022/10/12 03:06:43;;;;;;;3.40;3.01;;;;;;;9.09;75.48;101334.96;471539;112;922632;-76
2022/10/12 03:07:46;;;;;;;5.08;2.77;;;;;;;9.09;75.60;101332.23;471541;112;922542;-75
2022/10/12 03:08:49;;;;;;;2.91;2.43;;;;;;;9.10;75.58;101336.62;471482;112;922588;-76
2022/10/12 03:09:52;;;;;;;3.14;2.72;;;;;;;9.11;75.60;101335.59;471493;112;923088;-77
2022/10/12 03:11:00;;;;;;;2.99;2.60;;;;;;;9.13;75.60;101340.86;471575;112;922610;-76
2022/10/12 03:12:03;;;;;;;5.78;3.07;;;;;;;9.13;75.59;101336.27;471277;112;923005;-76
2022/10/12 03:13:06;;;;;;;3.76;2.84;;;;;;;9.15;75.63;101338.81;471527;112;922611;-76
2022/10/12 03:14:11;;;;;;;5.71;2.83;;;;;;;9.15;75.65;101342.34;471524;112;922392;-77
2022/10/12 03:15:14;;;;;;;3.89;2.77;;;;;;;9.17;75.63;101334.00;471345;112;922854;-76
2022/10/12 03:16:17;;;;;;;3.03;2.81;;;;;;;9.17;75.67;101334.00;465927;112;922672;-75
2022/10/12 03:17:20;;;;;;;3.99;3.07;;;;;;;9.17;75.47;101342.17;463268;114;922823;-75
2022/10/12 03:18:23;;;;;;;3.12;2.89;;;;;;;9.16;75.41;101341.31;463225;114;922561;-76
2022/10/12 03:19:26;;;;;;;2.80;2.60;;;;;;;9.16;75.37;101338.59;463239;114;922480;-75
2022/10/12 03:20:29;;;;;;;2.98;2.75;;;;;;;9.15;75.33;101347.78;463249;114;922526;-75
2022/10/12 03:21:32;;;;;;;2.66;2.42;;;;;;;9.16;75.35;101337.75;463172;114;922928;-78
2022/10/12 03:22:35;;;;;;;3.60;2.78;;;;;;;9.15;75.29;101341.53;463295;114;922516;-76
2022/10/12 03:23:38;;;;;;;3.04;2.76;;;;;;;9.14;75.29;101340.68;463228;114;922548;-76
2022/10/12 03:24:41;;;;;;;2.53;2.34;;;;;;;9.13;75.32;101344.43;463228;114;922484;-75
2022/10/12 03:25:44;;;;;;;3.11;2.87;;;;;;;9.14;75.32;101343.41;463251;114;923007;-76
2022/10/12 03:26:47;;;;;;;2.70;2.30;;;;;;;9.13;75.24;101341.70;463274;114;922511;-76
2022/10/12 03:27:50;;;;;;;3.14;2.70;;;;;;;9.13;75.35;101340.86;463250;114;922447;-76
2022/10/12 03:28:53;;;;;;;3.56;2.48;;;;;;;9.14;75.29;101339.84;463200;114;922528;-77
2022/10/12 03:29:56;;;;;;;4.04;2.42;;;;;;;9.13;75.26;101341.70;463242;114;922442;-77
2022/10/12 03:31:00;;;;;;;3.11;2.79;;;;;;;9.12;75.16;101344.61;463259;114;922596;-78
2022/10/12 03:32:03;;;;;;;3.21;2.98;;;;;;;9.11;75.21;101341.04;463114;114;922482;-78
2022/10/12 03:33:06;;;;;;;6.50;2.77;;;;;;;9.10;75.18;101343.94;454167;116;930681;-76
2022/10/12 03:34:09;;;;;;;3.66;2.74;;;;;;;9.11;75.17;101348.35;454430;114;922747;-76
2022/10/12 03:35:12;;;;;;;2.86;2.52;;;;;;;9.11;75.19;101338.32;463251;114;922498;-76
2022/10/12 03:36:16;;;;;;;2.62;2.42;;;;;;;9.10;75.19;101343.94;463156;114;922974;-76
2022/10/12 03:37:19;;;;;;;3.79;2.52;;;;;;;9.10;75.28;101343.94;463220;114;922590;-77
2022/10/12 03:38:22;;;;;;;2.82;2.48;;;;;;;9.10;75.25;101343.94;463254;114;922973;-76
2022/10/12 03:39:25;;;;;;;2.85;2.61;;;;;;;9.11;75.27;101345.63;463270;114;922763;-77
2022/10/12 03:40:28;;;;;;;2.94;2.27;;;;;;;9.13;75.25;101343.58;463219;114;922450;-77
2022/10/12 03:41:31;;;;;;;2.41;2.21;;;;;;;9.13;75.27;101346.30;463200;114;922596;-76
2022/10/12 03:42:34;;;;;;;3.94;2.48;;;;;;;9.12;75.28;101348.17;463217;114;922963;-76
2022/10/12 03:43:37;;;;;;;2.76;2.21;;;;;;;9.12;75.19;101341.89;463281;114;922577;-77
2022/10/12 03:44:40;;;;;;;3.33;2.85;;;;;;;9.12;75.13;101347.33;463237;114;922519;-74
2022/10/12 03:45:43;;;;;;;4.37;2.78;;;;;;;9.12;75.11;101350.89;463228;114;922903;-75
2022/10/12 03:46:46;;;;;;;3.37;2.59;;;;;;;9.11;75.11;101346.48;463238;114;922553;-78
2022/10/12 03:47:49;;;;;;;8.07;2.77;;;;;;;9.12;75.12;101352.77;463196;114;923016;-77
2022/10/12 03:48:52;;;;;;;6.78;2.72;;;;;;;9.10;74.88;101349.38;463173;114;923514;-76
2022/10/12 03:49:55;;;;;;;2.64;2.44;;;;;;;9.09;74.80;101350.44;463206;114;922522;-77
2022/10/12 03:50:58;;;;;;;2.41;2.21;;;;;;;9.06;74.78;101339.91;463248;114;922588;-76
2022/10/12 03:52:01;;;;;;;2.84;2.54;;;;;;;9.06;74.81;101348.07;469661;112;923028;-76
2022/10/12 03:53:05;;;;;;;3.17;2.91;;;;;;;9.05;74.76;101349.94;471396;112;922638;-75
2022/10/12 03:54:08;;;;;;;3.42;3.09;;;;;;;9.04;74.80;101350.16;471263;112;922564;-76
2022/10/12 03:55:12;;;;;;;3.74;2.41;;;;;;;9.04;74.89;101347.43;471374;112;923080;-76
2022/10/12 03:56:15;;;;;;;3.26;2.39;;;;;;;9.03;74.90;101353.89;471278;112;922904;-76
2022/10/12 03:57:18;;;;;;;2.99;2.54;;;;;;;9.02;74.89;101354.92;461883;114;922643;-76
2022/10/12 03:58:21;;;;;;;2.91;2.59;;;;;;;9.02;74.77;101355.77;462156;112;930589;-76
2022/10/12 03:59:24;;;;;;;3.91;2.52;;;;;;;9.01;74.79;101355.95;470269;112;922625;-76
2022/10/12 04:00:27;;;;;;;2.43;2.24;;;;;;;9.01;74.94;101353.23;471373;112;922461;-76
2022/10/12 04:01:31;;;;;;;3.13;2.56;;;;;;;9.00;75.01;101365.98;471336;112;922579;-76
2022/10/12 04:02:34;;;;;;;2.76;2.54;;;;;;;9.01;75.12;101364.11;471290;112;923098;-76
2022/10/12 04:03:37;;;;;;;4.01;2.59;;;;;;;9.02;75.17;101363.93;471394;112;922655;-76
2022/10/12 04:04:40;;;;;;;2.77;2.58;;;;;;;9.03;75.24;101362.91;471406;112;922636;-76
2022/10/12 04:05:43;;;;;;;2.87;2.67;;;;;;;9.05;75.19;101359.98;471383;112;922543;-76
2022/10/12 04:06:46;;;;;;;4.56;2.86;;;;;;;9.05;75.17;101363.55;471410;112;922585;-76
2022/10/12 04:07:49;;;;;;;2.84;2.56;;;;;;;9.07;75.21;101360.64;471376;112;922454;-76
2022/10/12 04:08:52;;;;;;;2.87;2.67;;;;;;;9.07;75.23;101358.77;471434;112;922668;-76
2022/10/12 04:09:55;;;;;;;2.89;2.66;;;;;;;9.08;75.21;101357.75;471424;112;922855;-76
2022/10/12 04:10:58;;;;;;;2.76;2.56;;;;;;;9.09;75.15;101364.89;471456;112;922883;-76
2022/10/12 04:12:01;;;;;;;2.65;2.48;;;;;;;9.10;75.00;101368.42;471434;112;923252;-75
2022/10/12 04:13:04;;;;;;;3.42;2.61;;;;;;;9.10;74.85;101366.55;471387;112;922430;-77
2022/10/12 04:14:07;;;;;;;3.09;2.81;;;;;;;9.10;74.79;101371.14;471424;112;922433;-76
2022/10/12 04:15:10;;;;;;;4.34;3.10;;;;;;;9.08;74.69;101365.91;471377;112;922447;-75
2022/10/12 04:16:13;;;;;;;2.99;2.44;;;;;;;9.07;74.63;101368.81;466454;112;922652;-75
2022/10/12 04:17:16;;;;;;;3.00;2.77;;;;;;;9.06;74.56;101372.55;463113;114;922774;-76
2022/10/12 04:18:19;;;;;;;3.19;2.90;;;;;;;9.06;74.62;101369.83;463120;114;922588;-74
2022/10/12 04:19:22;;;;;;;3.49;2.84;;;;;;;9.05;74.61;101379.02;463117;114;922999;-77
2022/10/12 04:20:25;;;;;;;3.41;3.12;;;;;;;9.04;74.57;101372.73;463120;114;922958;-77
2022/10/12 04:21:30;;;;;;;4.24;3.08;;;;;;;9.04;74.55;101371.91;463098;114;922453;-76
2022/10/12 04:22:33;;;;;;;3.02;2.82;;;;;;;9.03;74.57;101370.22;462959;114;922636;-77
2022/10/12 04:23:36;;;;;;;2.67;2.47;;;;;;;9.02;74.47;101369.37;463118;114;922904;-77
2022/10/12 04:24:39;;;;;;;3.04;2.84;;;;;;;9.01;74.52;101373.11;463063;114;922979;-77
2022/10/12 04:25:42;;;;;;;3.52;3.24;;;;;;;9.01;74.51;101372.27;463064;114;923063;-76
2022/10/12 04:26:45;;;;;;;4.02;3.11;;;;;;;8.99;74.39;101372.44;463099;114;922933;-76
2022/10/12 04:27:48;;;;;;;3.65;3.35;;;;;;;8.99;74.41;101374.31;463135;114;922492;-77
2022/10/12 04:28:51;;;;;;;3.04;2.75;;;;;;;8.99;74.43;101377.03;463132;114;923040;-78
2022/10/12 04:29:54;;;;;;;3.24;3.04;;;;;;;8.98;74.46;101375.38;463118;114;922530;-77
2022/10/12 04:30:57;;;;;;;2.76;2.56;;;;;;;8.98;74.58;101375.38;463162;114;922558;-76
2022/10/12 04:32:00;;;;;;;3.86;3.13;;;;;;;8.98;74.61;101378.09;463113;114;922472;-76
2022/10/12 04:33:04;;;;;;;3.18;2.94;;;;;;;8.98;74.64;101380.81;463078;114;924249;-75
2022/10/12 04:34:10;;;;;;;4.38;2.91;;;;;;;8.98;74.65;101380.81;464282;114;923029;-76
2022/10/12 04:35:13;;;;;;;3.17;2.94;;;;;;;8.98;74.65;101388.97;465312;114;922559;-77
2022/10/12 04:36:17;;;;;;;3.19;2.89;;;;;;;8.99;74.71;101394.20;465416;113;922944;-76
2022/10/12 04:37:20;;;;;;;3.29;2.92;;;;;;;8.99;74.78;101386.05;465437;113;931007;-77
2022/10/12 04:38:23;;;;;;;3.34;3.10;;;;;;;9.01;74.86;101383.14;465521;114;922501;-75
2022/10/12 04:39:26;;;;;;;3.76;3.22;;;;;;;9.02;74.86;101390.28;465539;113;922526;-77
2022/10/12 04:40:29;;;;;;;4.89;3.21;;;;;;;9.02;74.83;101384.84;465537;114;922517;-75
2022/10/12 04:41:32;;;;;;;3.92;3.24;;;;;;;9.03;74.86;101384.66;465507;114;922517;-77
2022/10/12 04:42:34;;;;;;;3.25;3.05;;;;;;;9.04;74.90;101388.23;465944;114;922606;-76
2022/10/12 04:43:38;;;;;;;3.15;2.95;;;;;;;9.05;74.96;101389.90;466149;114;922582;-75
2022/10/12 04:44:41;;;;;;;3.59;3.29;;;;;;;9.05;74.87;101385.30;466140;114;922567;-76
2022/10/12 04:45:43;;;;;;;3.58;3.30;;;;;;;9.05;74.78;101389.90;466089;114;922573;-76
2022/10/12 04:46:46;;;;;;;5.30;3.30;;;;;;;9.04;74.72;101383.61;466130;114;922626;-76
2022/10/12 04:47:50;;;;;;;4.60;3.54;;;;;;;9.05;74.77;101395.34;466091;114;922462;-77
2022/10/12 04:48:53;;;;;;;3.72;3.39;;;;;;;9.06;74.81;101402.48;466077;114;923418;-76
2022/10/12 04:49:56;;;;;;;3.98;3.68;;;;;;;9.07;74.85;101398.73;466121;114;923270;-76
2022/10/12 04:50:59;;;;;;;3.58;3.27;;;;;;;9.07;74.95;101396.01;466073;114;922529;-76
2022/10/12 04:52:02;;;;;;;4.11;3.68;;;;;;;9.08;74.92;101395.84;459630;114;922401;-78
2022/10/12 04:53:05;;;;;;;3.71;3.40;;;;;;;9.10;74.93;101409.23;457993;116;922750;-76
2022/10/12 04:54:09;;;;;;;3.71;3.41;;;;;;;9.11;75.04;101400.04;458005;116;922480;-77
2022/10/12 04:55:12;;;;;;;3.82;3.52;;;;;;;9.12;75.04;101404.46;457812;116;922444;-77
2022/10/12 04:56:15;;;;;;;3.24;3.03;;;;;;;9.14;74.98;101402.41;458011;116;922935;-76
2022/10/12 04:57:19;;;;;;;5.83;3.66;;;;;;;9.14;75.00;101400.53;457906;116;923140;-76
2022/10/12 04:58:22;;;;;;;3.56;3.33;;;;;;;9.16;75.03;101400.33;457956;116;930969;-75
2022/10/12 04:59:25;;;;;;;3.96;3.71;;;;;;;9.17;75.00;101400.15;457996;116;922679;-76
2022/10/12 05:00:28;;;;;;;3.58;3.31;;;;;;;9.18;75.06;101393.69;457982;116;922466;-76
2022/10/12 05:01:32;;;;;;;5.86;4.01;;;;;;;9.19;75.16;101398.10;457920;114;923069;-77
2022/10/12 05:02:34;;;;;;;3.38;3.08;;;;;;;9.21;75.18;101406.05;458018;116;923076;-76
2022/10/12 05:03:37;;;;;;;3.51;3.28;;;;;;;9.23;75.27;101398.56;458000;116;922998;-78
2022/10/12 05:04:42;;;;;;;3.39;3.11;;;;;;;9.24;75.25;101405.70;457637;116;923809;-77
2022/10/12 05:05:45;;;;;;;4.03;3.68;;;;;;;9.25;75.23;101401.95;458014;116;922656;-77
2022/10/12 05:06:48;;;;;;;3.78;3.48;;;;;;;9.28;75.22;101409.73;458018;116;922529;-76